Riga — LG5517 — position and weather

sailwx.info

Track history (hours):
 
Tides and Currents Weather Stations Pressure Air Temp Water Temp Dewpoint Dewpoint Depression Visibility Wind Speed Wind Dir Waves Ship Positions

Riga

Last reported at 2016-Aug-25 22:30 UTC. Time now 2016-Aug-25 23:47 UTC.
Position N 66°22' E 012°22'.

Length 13 m.

Type: Pleasure craft. MMSI: 258085340.

Date/timePositionNaut miles runAvg speedWind from/ knotsBaromVisibWave heightAir tempDewpointWater temp
2016-Aug-25 22:30N 66°22' E 012°22'0 0.0
2016-Aug-25 21:30N 66°22' E 012°22'0 0.0
2016-Aug-25 20:30N 66°22' E 012°22'0 0.0
2016-Aug-25 19:21N 66°22' E 012°22'0 0.0
2016-Aug-25 18:15N 66°22' E 012°22'0 0.0
2016-Aug-25 17:27N 66°22' E 012°22'0 0.0
2016-Aug-25 16:27N 66°22' E 012°22'0 0.0
2016-Aug-25 15:33N 66°22' E 012°22'4 1.2
2016-Aug-25 12:05N 66°18' E 012°24'4 7.8
2016-Aug-25 11:32N 66°22' E 012°22'0 0.0
2016-Aug-25 10:32N 66°22' E 012°22'0 0.0
2016-Aug-25 09:32N 66°22' E 012°22'0 0.0
2016-Aug-25 08:32N 66°22' E 012°22'0 0.0
2016-Aug-25 07:32N 66°22' E 012°22'0 0.0
2016-Aug-25 06:26N 66°22' E 012°22'0 0.0
2016-Aug-25 04:32N 66°22' E 012°22'0 0.0
2016-Aug-25 03:26N 66°22' E 012°22'0 0.0
2016-Aug-25 02:32N 66°22' E 012°22'0 0.0
2016-Aug-25 01:32N 66°22' E 012°22'0 0.0
2016-Aug-25 00:32N 66°22' E 012°22'0 0.0
2016-Aug-24 23:32N 66°22' E 012°22'0 0.0
2016-Aug-24 22:26N 66°22' E 012°22'0 0.0
2016-Aug-24 21:32N 66°22' E 012°22'0 0.0
2016-Aug-24 20:32N 66°22' E 012°22'0 0.0
2016-Aug-24 19:32N 66°22' E 012°22'0 0.0
2016-Aug-24 18:32N 66°22' E 012°22'0 0.0
2016-Aug-24 17:32N 66°22' E 012°22'0 0.0
2016-Aug-24 16:31N 66°22' E 012°22'0 0.0
2016-Aug-24 15:31N 66°22' E 012°22'3 3.0
2016-Aug-24 14:32N 66°24' E 012°28'0 0.1
2016-Aug-24 10:33N 66°23' E 012°27'3 2.4
2016-Aug-24 09:29N 66°22' E 012°22'0 0.0
2016-Aug-24 08:29N 66°22' E 012°22'0 0.0
2016-Aug-24 07:29N 66°22' E 012°22'0 0.0
2016-Aug-24 06:29N 66°22' E 012°22'0 0.0
2016-Aug-24 04:29N 66°22' E 012°22'0 0.0
2016-Aug-24 03:29N 66°22' E 012°22'0 0.0
2016-Aug-24 02:29N 66°22' E 012°22'0 0.0
2016-Aug-24 01:29N 66°22' E 012°22'0 0.0
2016-Aug-24 00:33N 66°22' E 012°22'0 0.0
2016-Aug-23 23:27N 66°22' E 012°22'0 0.0
2016-Aug-23 22:33N 66°22' E 012°22'0 0.0
2016-Aug-23 21:33N 66°22' E 012°22'0 0.0
2016-Aug-23 20:33N 66°22' E 012°22'0 0.0
2016-Aug-23 19:27N 66°22' E 012°22'0 0.0
2016-Aug-23 18:33N 66°22' E 012°22'0 0.0
2016-Aug-23 17:27N 66°22' E 012°22'0 0.0
2016-Aug-23 16:29N 66°22' E 012°22'0 0.0
2016-Aug-23 15:29N 66°22' E 012°22'0 0.0
2016-Aug-23 14:30N 66°22' E 012°22'0 0.0
2016-Aug-23 13:29N 66°22' E 012°22'0 0.0
2016-Aug-23 12:30N 66°22' E 012°22'0 0.0
2016-Aug-23 11:29N 66°22' E 012°22'0 0.0
2016-Aug-23 10:24N 66°22' E 012°22'0 0.0
2016-Aug-23 09:30N 66°22' E 012°22'0 0.0
2016-Aug-23 08:30N 66°22' E 012°22'0 0.0
2016-Aug-23 07:30N 66°22' E 012°22'0 0.0
2016-Aug-23 06:30N 66°22' E 012°22'0 0.0
2016-Aug-23 05:24N 66°22' E 012°22'0 0.0
2016-Aug-23 04:30N 66°22' E 012°22'0 0.0
2016-Aug-23 03:24N 66°22' E 012°22'0 0.0
2016-Aug-23 02:30N 66°22' E 012°22'0 0.0
2016-Aug-23 01:30N 66°22' E 012°22'0 0.0
2016-Aug-23 00:24N 66°22' E 012°22'0 0.0
2016-Aug-22 23:30N 66°22' E 012°22'0 0.0
2016-Aug-22 22:24N 66°22' E 012°22'0 0.0
2016-Aug-22 21:30N 66°22' E 012°22'0 0.0
2016-Aug-22 20:30N 66°22' E 012°22'0 0.0
2016-Aug-22 19:06N 66°22' E 012°22'0 0.0
2016-Aug-22 18:33N 66°22' E 012°22'0 0.0
2016-Aug-22 17:33N 66°22' E 012°22'9418.7
2016-Aug-22 12:33N 64°53' E 011°18'2 1.9
2016-Aug-22 11:33N 64°52' E 011°14'0 0.0
2016-Aug-22 10:33N 64°52' E 011°14'0 0.0
2016-Aug-22 09:33N 64°52' E 011°14'0 0.0
2016-Aug-22 08:27N 64°52' E 011°14'0 0.0
2016-Aug-22 07:29N 64°52' E 011°14'0 0.0
2016-Aug-22 06:29N 64°52' E 011°14'0 0.0
2016-Aug-22 05:29N 64°52' E 011°14'0 0.0
2016-Aug-22 04:29N 64°52' E 011°14'0 0.0
2016-Aug-21 23:33N 64°52' E 011°14'0 0.0
2016-Aug-21 22:15N 64°52' E 011°14'0 0.0
2016-Aug-21 21:27N 64°52' E 011°14'0 0.0
2016-Aug-21 20:29N 64°52' E 011°14'0 0.0
2016-Aug-21 19:23N 64°52' E 011°14'0 0.0
2016-Aug-21 18:33N 64°52' E 011°14'9222.4
2016-Aug-21 14:27N 66°19' E 012°23'4 4.1
2016-Aug-21 13:33N 66°22' E 012°22'0 0.0
2016-Aug-21 12:27N 66°22' E 012°22'0 0.0
2016-Aug-21 11:27N 66°22' E 012°22'0 0.0
2016-Aug-21 10:33N 66°22' E 012°22'0 0.0
2016-Aug-21 09:33N 66°22' E 012°22'0 0.0
2016-Aug-21 08:33N 66°22' E 012°22'0 0.0
2016-Aug-21 07:27N 66°22' E 012°22'0 0.0
2016-Aug-21 06:33N 66°22' E 012°22'0 0.0
2016-Aug-21 05:33N 66°22' E 012°22'0 0.0
2016-Aug-21 04:33N 66°22' E 012°22'0 0.0
2016-Aug-21 03:33N 66°22' E 012°22'0 0.0
2016-Aug-21 02:33N 66°22' E 012°22'0 0.0
2016-Aug-21 01:27N 66°22' E 012°22'0 0.0
2016-Aug-21 00:33N 66°22' E 012°22'0 0.0
2016-Aug-20 23:33N 66°22' E 012°22'0 0.0
2016-Aug-20 22:33N 66°22' E 012°22'0 0.0
2016-Aug-20 21:33N 66°22' E 012°22'0 0.0
2016-Aug-20 20:33N 66°22' E 012°22'0 0.0
2016-Aug-20 19:33N 66°22' E 012°22'0 0.0
2016-Aug-20 18:27N 66°22' E 012°22'0 0.0
2016-Aug-20 17:33N 66°22' E 012°22'0 0.0
2016-Aug-20 16:33N 66°22' E 012°22'0 0.0
2016-Aug-20 15:33N 66°22' E 012°22'0 0.0
2016-Aug-20 14:26N 66°22' E 012°22'0 0.0
2016-Aug-20 13:32N 66°22' E 012°22'0 0.0
2016-Aug-20 12:32N 66°22' E 012°22'1 0.5
2016-Aug-20 11:32N 66°22' E 012°22'6 2.7
2016-Aug-20 09:06N 66°24' E 012°38'710.9
2016-Aug-20 08:29N 66°22' E 012°22'0 0.0
2016-Aug-20 07:29N 66°22' E 012°22'0 0.0
2016-Aug-20 06:29N 66°22' E 012°22'0 0.0
2016-Aug-20 05:29N 66°22' E 012°22'0 0.0
2016-Aug-20 04:29N 66°22' E 012°22'0 0.0
2016-Aug-20 03:29N 66°22' E 012°22'0 0.0
2016-Aug-20 02:17N 66°22' E 012°22'0 0.0
2016-Aug-20 01:30N 66°22' E 012°22'0 0.0
2016-Aug-20 00:23N 66°22' E 012°22'0 0.0
2016-Aug-19 23:29N 66°22' E 012°22'0 0.0
2016-Aug-19 22:29N 66°22' E 012°22'0 0.0
2016-Aug-19 21:29N 66°22' E 012°22'0 0.0
2016-Aug-19 20:29N 66°22' E 012°22'0 0.0
2016-Aug-19 19:30N 66°22' E 012°22'0 0.0
2016-Aug-19 18:29N 66°22' E 012°22'0 0.0
2016-Aug-19 17:24N 66°22' E 012°22'0 0.0
2016-Aug-19 15:30N 66°22' E 012°22'0 0.0
2016-Aug-19 13:29N 66°22' E 012°22'0 0.0
2016-Aug-19 12:29N 66°22' E 012°22'0 0.0
2016-Aug-19 11:24N 66°22' E 012°22'0 0.0
2016-Aug-19 10:30N 66°22' E 012°22'0 0.0
2016-Aug-19 09:24N 66°22' E 012°22'0 0.0
2016-Aug-19 08:30N 66°22' E 012°22'0 0.0
2016-Aug-19 07:30N 66°22' E 012°22'0 0.0
2016-Aug-19 06:30N 66°22' E 012°22'0 0.0
2016-Aug-19 05:30N 66°22' E 012°22'0 0.0
2016-Aug-19 04:30N 66°22' E 012°22'0 0.0
2016-Aug-19 03:30N 66°22' E 012°22'0 0.0
2016-Aug-19 02:30N 66°22' E 012°22'0 0.0
2016-Aug-19 01:30N 66°22' E 012°22'0 0.0
2016-Aug-19 00:30N 66°22' E 012°22'0 0.0
2016-Aug-18 23:30N 66°22' E 012°22'0 0.0
2016-Aug-18 22:30N 66°22' E 012°22'0 0.0
2016-Aug-18 21:24N 66°22' E 012°22'0 0.0
2016-Aug-18 20:24N 66°22' E 012°22'0 0.0
2016-Aug-18 19:30N 66°22' E 012°22'0 0.0
2016-Aug-18 18:24N 66°22' E 012°22'0 0.0
2016-Aug-18 17:12N 66°22' E 012°22'0 0.0
2016-Aug-18 16:30N 66°22' E 012°22'0 0.0
2016-Aug-18 15:29N 66°22' E 012°22'0 0.0
2016-Aug-18 14:23N 66°22' E 012°22'0 0.0
2016-Aug-18 13:29N 66°22' E 012°22'0 0.0
2016-Aug-18 12:29N 66°22' E 012°22'0 0.0
2016-Aug-18 11:29N 66°22' E 012°22'92 3.5
2016-Aug-17 09:33N 64°54' E 011°20'4 3.6
2016-Aug-17 08:32N 64°52' E 011°14'0 0.0
2016-Aug-17 07:32N 64°52' E 011°14'0 0.0
2016-Aug-17 06:32N 64°52' E 011°14'0 0.0
2016-Aug-17 05:33N 64°52' E 011°14'0 0.0
2016-Aug-17 04:27N 64°52' E 011°14'0 0.0
2016-Aug-17 03:33N 64°52' E 011°14'0 0.0
2016-Aug-17 02:33N 64°52' E 011°14'0 0.0
2016-Aug-17 01:33N 64°52' E 011°14'0 0.0
2016-Aug-17 00:33N 64°52' E 011°14'0 0.0
2016-Aug-16 23:33N 64°52' E 011°14'0 0.0
2016-Aug-16 22:30N 64°52' E 011°14'0 0.0
2016-Aug-16 21:30N 64°52' E 011°14'7216.2
2016-Aug-16 17:06N 63°52' E 009°42'1423.9
2016-Aug-16 16:32N 63°40' E 009°29'2020.4
2016-Aug-16 15:33N 63°29' E 010°06'8 8.0
2016-Aug-16 14:33N 63°26' E 010°23'1 0.9
2016-Aug-16 13:33N 63°26' E 010°25'0 0.0
2016-Aug-16 12:33N 63°26' E 010°25'0 0.0
2016-Aug-16 11:33N 63°26' E 010°25'0 0.0
2016-Aug-16 10:33N 63°26' E 010°25'0 0.0
2016-Aug-16 09:33N 63°26' E 010°25'0 0.0
2016-Aug-16 08:33N 63°26' E 010°25'0 0.0
2016-Aug-16 07:33N 63°26' E 010°25'0 0.0
2016-Aug-16 04:33N 63°26' E 010°25'0 0.0
2016-Aug-16 03:33N 63°26' E 010°25'0 0.0
2016-Aug-16 02:32N 63°26' E 010°25'0 0.0
2016-Aug-16 01:32N 63°26' E 010°25'0 0.0
2016-Aug-16 00:32N 63°26' E 010°25'0 0.0
2016-Aug-15 23:32N 63°26' E 010°25'0 0.0
2016-Aug-15 22:33N 63°26' E 010°25'  
Track history (hours):
 
Tides and Currents Weather Stations Pressure Air Temp Water Temp Dewpoint Dewpoint Depression Visibility Wind Speed Wind Dir Waves Ship Positions

Riga

Last reported at 2016-Aug-25 22:30 UTC. Time now 2016-Aug-25 23:47 UTC.
Position N 66°22' E 012°22'.

Length 13 m.

Type: Pleasure craft. MMSI: 258085340.

Date/timePositionNaut miles runAvg speedWind from/ knotsBaromVisibWave heightAir tempDewpointWater temp
2016-Aug-25 22:30N 66°22' E 012°22'0 0.0
2016-Aug-25 21:30N 66°22' E 012°22'0 0.0
2016-Aug-25 20:30N 66°22' E 012°22'0 0.0
2016-Aug-25 19:21N 66°22' E 012°22'0 0.0
2016-Aug-25 18:15N 66°22' E 012°22'0 0.0
2016-Aug-25 17:27N 66°22' E 012°22'0 0.0
2016-Aug-25 16:27N 66°22' E 012°22'0 0.0
2016-Aug-25 15:33N 66°22' E 012°22'4 1.2
2016-Aug-25 12:05N 66°18' E 012°24'4 7.8
2016-Aug-25 11:32N 66°22' E 012°22'0 0.0
2016-Aug-25 10:32N 66°22' E 012°22'0 0.0
2016-Aug-25 09:32N 66°22' E 012°22'0 0.0
2016-Aug-25 08:32N 66°22' E 012°22'0 0.0
2016-Aug-25 07:32N 66°22' E 012°22'0 0.0
2016-Aug-25 06:26N 66°22' E 012°22'0 0.0
2016-Aug-25 04:32N 66°22' E 012°22'0 0.0
2016-Aug-25 03:26N 66°22' E 012°22'0 0.0
2016-Aug-25 02:32N 66°22' E 012°22'0 0.0
2016-Aug-25 01:32N 66°22' E 012°22'0 0.0
2016-Aug-25 00:32N 66°22' E 012°22'0 0.0
2016-Aug-24 23:32N 66°22' E 012°22'0 0.0
2016-Aug-24 22:26N 66°22' E 012°22'0 0.0
2016-Aug-24 21:32N 66°22' E 012°22'0 0.0
2016-Aug-24 20:32N 66°22' E 012°22'0 0.0
2016-Aug-24 19:32N 66°22' E 012°22'0 0.0
2016-Aug-24 18:32N 66°22' E 012°22'0 0.0
2016-Aug-24 17:32N 66°22' E 012°22'0 0.0
2016-Aug-24 16:31N 66°22' E 012°22'0 0.0
2016-Aug-24 15:31N 66°22' E 012°22'3 3.0
2016-Aug-24 14:32N 66°24' E 012°28'0 0.1
2016-Aug-24 10:33N 66°23' E 012°27'3 2.4
2016-Aug-24 09:29N 66°22' E 012°22'0 0.0
2016-Aug-24 08:29N 66°22' E 012°22'0 0.0
2016-Aug-24 07:29N 66°22' E 012°22'0 0.0
2016-Aug-24 06:29N 66°22' E 012°22'0 0.0
2016-Aug-24 04:29N 66°22' E 012°22'0 0.0
2016-Aug-24 03:29N 66°22' E 012°22'0 0.0
2016-Aug-24 02:29N 66°22' E 012°22'0 0.0
2016-Aug-24 01:29N 66°22' E 012°22'0 0.0
2016-Aug-24 00:33N 66°22' E 012°22'0 0.0
2016-Aug-23 23:27N 66°22' E 012°22'0 0.0
2016-Aug-23 22:33N 66°22' E 012°22'0 0.0
2016-Aug-23 21:33N 66°22' E 012°22'0 0.0
2016-Aug-23 20:33N 66°22' E 012°22'0 0.0
2016-Aug-23 19:27N 66°22' E 012°22'0 0.0
2016-Aug-23 18:33N 66°22' E 012°22'0 0.0
2016-Aug-23 17:27N 66°22' E 012°22'0 0.0
2016-Aug-23 16:29N 66°22' E 012°22'0 0.0
2016-Aug-23 15:29N 66°22' E 012°22'0 0.0
2016-Aug-23 14:30N 66°22' E 012°22'0 0.0
2016-Aug-23 13:29N 66°22' E 012°22'0 0.0
2016-Aug-23 12:30N 66°22' E 012°22'0 0.0
2016-Aug-23 11:29N 66°22' E 012°22'0 0.0
2016-Aug-23 10:24N 66°22' E 012°22'0 0.0
2016-Aug-23 09:30N 66°22' E 012°22'0 0.0
2016-Aug-23 08:30N 66°22' E 012°22'0 0.0
2016-Aug-23 07:30N 66°22' E 012°22'0 0.0
2016-Aug-23 06:30N 66°22' E 012°22'0 0.0
2016-Aug-23 05:24N 66°22' E 012°22'0 0.0
2016-Aug-23 04:30N 66°22' E 012°22'0 0.0
2016-Aug-23 03:24N 66°22' E 012°22'0 0.0
2016-Aug-23 02:30N 66°22' E 012°22'0 0.0
2016-Aug-23 01:30N 66°22' E 012°22'0 0.0
2016-Aug-23 00:24N 66°22' E 012°22'0 0.0
2016-Aug-22 23:30N 66°22' E 012°22'0 0.0
2016-Aug-22 22:24N 66°22' E 012°22'0 0.0
2016-Aug-22 21:30N 66°22' E 012°22'0 0.0
2016-Aug-22 20:30N 66°22' E 012°22'0 0.0
2016-Aug-22 19:06N 66°22' E 012°22'0 0.0
2016-Aug-22 18:33N 66°22' E 012°22'0 0.0
2016-Aug-22 17:33N 66°22' E 012°22'9418.7
2016-Aug-22 12:33N 64°53' E 011°18'2 1.9
2016-Aug-22 11:33N 64°52' E 011°14'0 0.0
2016-Aug-22 10:33N 64°52' E 011°14'0 0.0
2016-Aug-22 09:33N 64°52' E 011°14'0 0.0
2016-Aug-22 08:27N 64°52' E 011°14'0 0.0
2016-Aug-22 07:29N 64°52' E 011°14'0 0.0
2016-Aug-22 06:29N 64°52' E 011°14'0 0.0
2016-Aug-22 05:29N 64°52' E 011°14'0 0.0
2016-Aug-22 04:29N 64°52' E 011°14'0 0.0
2016-Aug-21 23:33N 64°52' E 011°14'0 0.0
2016-Aug-21 22:15N 64°52' E 011°14'0 0.0
2016-Aug-21 21:27N 64°52' E 011°14'0 0.0
2016-Aug-21 20:29N 64°52' E 011°14'0 0.0
2016-Aug-21 19:23N 64°52' E 011°14'0 0.0
2016-Aug-21 18:33N 64°52' E 011°14'9222.4
2016-Aug-21 14:27N 66°19' E 012°23'4 4.1
2016-Aug-21 13:33N 66°22' E 012°22'0 0.0
2016-Aug-21 12:27N 66°22' E 012°22'0 0.0
2016-Aug-21 11:27N 66°22' E 012°22'0 0.0
2016-Aug-21 10:33N 66°22' E 012°22'0 0.0
2016-Aug-21 09:33N 66°22' E 012°22'0 0.0
2016-Aug-21 08:33N 66°22' E 012°22'0 0.0
2016-Aug-21 07:27N 66°22' E 012°22'0 0.0
2016-Aug-21 06:33N 66°22' E 012°22'0 0.0
2016-Aug-21 05:33N 66°22' E 012°22'0 0.0
2016-Aug-21 04:33N 66°22' E 012°22'0 0.0
2016-Aug-21 03:33N 66°22' E 012°22'0 0.0
2016-Aug-21 02:33N 66°22' E 012°22'0 0.0
2016-Aug-21 01:27N 66°22' E 012°22'0 0.0
2016-Aug-21 00:33N 66°22' E 012°22'0 0.0
2016-Aug-20 23:33N 66°22' E 012°22'0 0.0
2016-Aug-20 22:33N 66°22' E 012°22'0 0.0
2016-Aug-20 21:33N 66°22' E 012°22'0 0.0
2016-Aug-20 20:33N 66°22' E 012°22'0 0.0
2016-Aug-20 19:33N 66°22' E 012°22'0 0.0
2016-Aug-20 18:27N 66°22' E 012°22'0 0.0
2016-Aug-20 17:33N 66°22' E 012°22'0 0.0
2016-Aug-20 16:33N 66°22' E 012°22'0 0.0
2016-Aug-20 15:33N 66°22' E 012°22'0 0.0
2016-Aug-20 14:26N 66°22' E 012°22'0 0.0
2016-Aug-20 13:32N 66°22' E 012°22'0 0.0
2016-Aug-20 12:32N 66°22' E 012°22'1 0.5
2016-Aug-20 11:32N 66°22' E 012°22'6 2.7
2016-Aug-20 09:06N 66°24' E 012°38'710.9
2016-Aug-20 08:29N 66°22' E 012°22'0 0.0
2016-Aug-20 07:29N 66°22' E 012°22'0 0.0
2016-Aug-20 06:29N 66°22' E 012°22'0 0.0
2016-Aug-20 05:29N 66°22' E 012°22'0 0.0
2016-Aug-20 04:29N 66°22' E 012°22'0 0.0
2016-Aug-20 03:29N 66°22' E 012°22'0 0.0
2016-Aug-20 02:17N 66°22' E 012°22'0 0.0
2016-Aug-20 01:30N 66°22' E 012°22'0 0.0
2016-Aug-20 00:23N 66°22' E 012°22'0 0.0
2016-Aug-19 23:29N 66°22' E 012°22'0 0.0
2016-Aug-19 22:29N 66°22' E 012°22'0 0.0
2016-Aug-19 21:29N 66°22' E 012°22'0 0.0
2016-Aug-19 20:29N 66°22' E 012°22'0 0.0
2016-Aug-19 19:30N 66°22' E 012°22'0 0.0
2016-Aug-19 18:29N 66°22' E 012°22'0 0.0
2016-Aug-19 17:24N 66°22' E 012°22'0 0.0
2016-Aug-19 15:30N 66°22' E 012°22'0 0.0
2016-Aug-19 13:29N 66°22' E 012°22'0 0.0
2016-Aug-19 12:29N 66°22' E 012°22'0 0.0
2016-Aug-19 11:24N 66°22' E 012°22'0 0.0
2016-Aug-19 10:30N 66°22' E 012°22'0 0.0
2016-Aug-19 09:24N 66°22' E 012°22'0 0.0
2016-Aug-19 08:30N 66°22' E 012°22'0 0.0
2016-Aug-19 07:30N 66°22' E 012°22'0 0.0
2016-Aug-19 06:30N 66°22' E 012°22'0 0.0
2016-Aug-19 05:30N 66°22' E 012°22'0 0.0
2016-Aug-19 04:30N 66°22' E 012°22'0 0.0
2016-Aug-19 03:30N 66°22' E 012°22'0 0.0
2016-Aug-19 02:30N 66°22' E 012°22'0 0.0
2016-Aug-19 01:30N 66°22' E 012°22'0 0.0
2016-Aug-19 00:30N 66°22' E 012°22'0 0.0
2016-Aug-18 23:30N 66°22' E 012°22'0 0.0
2016-Aug-18 22:30N 66°22' E 012°22'0 0.0
2016-Aug-18 21:24N 66°22' E 012°22'0 0.0
2016-Aug-18 20:24N 66°22' E 012°22'0 0.0
2016-Aug-18 19:30N 66°22' E 012°22'0 0.0
2016-Aug-18 18:24N 66°22' E 012°22'0 0.0
2016-Aug-18 17:12N 66°22' E 012°22'0 0.0
2016-Aug-18 16:30N 66°22' E 012°22'0 0.0
2016-Aug-18 15:29N 66°22' E 012°22'0 0.0
2016-Aug-18 14:23N 66°22' E 012°22'0 0.0
2016-Aug-18 13:29N 66°22' E 012°22'0 0.0
2016-Aug-18 12:29N 66°22' E 012°22'0 0.0
2016-Aug-18 11:29N 66°22' E 012°22'92 3.5
2016-Aug-17 09:33N 64°54' E 011°20'4 3.6
2016-Aug-17 08:32N 64°52' E 011°14'0 0.0
2016-Aug-17 07:32N 64°52' E 011°14'0 0.0
2016-Aug-17 06:32N 64°52' E 011°14'0 0.0
2016-Aug-17 05:33N 64°52' E 011°14'0 0.0
2016-Aug-17 04:27N 64°52' E 011°14'0 0.0
2016-Aug-17 03:33N 64°52' E 011°14'0 0.0
2016-Aug-17 02:33N 64°52' E 011°14'0 0.0
2016-Aug-17 01:33N 64°52' E 011°14'0 0.0
2016-Aug-17 00:33N 64°52' E 011°14'0 0.0
2016-Aug-16 23:33N 64°52' E 011°14'0 0.0
2016-Aug-16 22:30N 64°52' E 011°14'0 0.0
2016-Aug-16 21:30N 64°52' E 011°14'7216.2
2016-Aug-16 17:06N 63°52' E 009°42'1423.9
2016-Aug-16 16:32N 63°40' E 009°29'2020.4
2016-Aug-16 15:33N 63°29' E 010°06'8 8.0
2016-Aug-16 14:33N 63°26' E 010°23'1 0.9
2016-Aug-16 13:33N 63°26' E 010°25'0 0.0
2016-Aug-16 12:33N 63°26' E 010°25'0 0.0
2016-Aug-16 11:33N 63°26' E 010°25'0 0.0
2016-Aug-16 10:33N 63°26' E 010°25'0 0.0
2016-Aug-16 09:33N 63°26' E 010°25'0 0.0
2016-Aug-16 08:33N 63°26' E 010°25'0 0.0
2016-Aug-16 07:33N 63°26' E 010°25'0 0.0
2016-Aug-16 04:33N 63°26' E 010°25'0 0.0
2016-Aug-16 03:33N 63°26' E 010°25'0 0.0
2016-Aug-16 02:32N 63°26' E 010°25'0 0.0
2016-Aug-16 01:32N 63°26' E 010°25'0 0.0
2016-Aug-16 00:32N 63°26' E 010°25'0 0.0
2016-Aug-15 23:32N 63°26' E 010°25'0 0.0
2016-Aug-15 22:33N 63°26' E 010°25'  

Dump ship's entire track history